Pagrindinis puslapis
METAR-TAF:

METAR-TAF

Oro uostai :

Abu Dabis, Jungtiniai Arabų Emyratai

platuma: 24-26N, ilguma: 054-28E, Aukštis: 5 m

Dabartinis oras

Ataskaita buvo paskelbta 44 minutes, ne 04:00 UTC
Vėjas 4 kt iš Rytų
Temperatūra 26°C
Drėgmė 74%
Slėgis 1015 hPa
Matomumas 10 km arba daugiau
nėra debesų žemiau 1500 m ir nėra kamuolinių lietaus debesų

METAR: OMAD 300400Z 10004KT CAVOK 26/21 Q1015 NOSIG

Laikas: 08:44 (04:44 UTC)

Prognozė

Ataskaita buvo paskelbta 5 valandos ir 44 minutes, ne 23:00 UTC
Prognozė galioja nuo 30 metu 00 UTC su 31 metu 06 UTC
Vėjas 5 kt iš Šiaurės Rytų
Matomumas: 8000 m
Tapsmas
nuo 30 metu 07 UTC su 30 metu 09 UTC
Vėjas 10 kt iš Šiaurės/Šiaurės Vakarų
Tapsmas
nuo 30 metu 18 UTC su 30 metu 20 UTC
Vėjas 5 kt iš Rytų/Šiaurės Rytų
Tikimybė 30%
nuo 31 metu 00 UTC su 31 metu 05 UTC
Matomumas: 4000 m
migla

TAF: OMAD 292300Z 3000/3106 05005KT 8000 NSC BECMG 3007/3009 34010KT BECMG 3018/3020 06005KT PROB30 3100/3105 4000 HZ

Orai ataskaitas ir orų prognozės (METAR, TAF).

turimą stotys yra geltonos ir raudonos taškus žemėlapyje.

Perkelti pele per norėdami pamatyti stoties vardą.

Tada spustelėkite, norėdami matyti oro stebėjimo ir prognozės.

Norėdami pakeisti žemėlapį: spustelėkite ant žalios mygtukų su juodo kryžiaus žemyn,; žalią mygtuką su brūkšneliu, jei norite nutolinti; arba žalių rodyklių gretimoms žemėlapius.


METAR-TAF: